createdAt,value
2018-12-15T00:00:49.630Z,100.00
2018-12-15T00:03:17.137Z,100.00
2018-12-15T00:05:44.711Z,100.00
2018-12-15T00:08:12.237Z,100.00
2018-12-15T00:10:39.732Z,100.00
2018-12-15T00:13:07.645Z,100.00
2018-12-15T00:15:35.449Z,100.00
2018-12-15T00:18:02.999Z,100.00
2018-12-15T00:20:30.499Z,100.00
2018-12-15T00:22:58.486Z,100.00
2018-12-15T00:25:25.983Z,100.00
2018-12-15T00:27:53.539Z,100.00
2018-12-15T00:30:21.067Z,100.00
2018-12-15T00:32:48.557Z,100.00
2018-12-15T00:35:16.025Z,100.00
2018-12-15T00:37:43.515Z,100.00
2018-12-15T00:40:10.999Z,100.00
2018-12-15T00:42:38.471Z,100.00
2018-12-15T00:45:06.088Z,100.00
2018-12-15T00:47:33.601Z,100.00
2018-12-15T00:50:01.211Z,100.00
2018-12-15T00:52:28.701Z,100.00
2018-12-15T00:54:56.178Z,100.00
2018-12-15T00:57:23.716Z,100.00
2018-12-15T00:59:51.301Z,100.00
2018-12-15T01:02:18.815Z,100.00
2018-12-15T01:04:46.265Z,100.00
2018-12-15T01:07:14.204Z,100.00
2018-12-15T01:09:41.686Z,100.00
2018-12-15T01:12:09.816Z,100.00
2018-12-15T01:14:37.282Z,100.00
2018-12-15T01:17:04.772Z,100.00
2018-12-15T01:19:32.263Z,100.00
2018-12-15T01:21:59.756Z,100.00
2018-12-15T01:24:27.250Z,100.00
2018-12-15T01:26:55.593Z,100.00
2018-12-15T01:29:23.057Z,100.00
2018-12-15T01:31:50.512Z,100.00
2018-12-15T01:34:18.036Z,100.00
2018-12-15T01:36:46.154Z,100.00
2018-12-15T01:39:13.641Z,100.00
2018-12-15T01:41:41.559Z,100.00
2018-12-15T01:44:09.064Z,100.00
2018-12-15T01:46:36.587Z,100.00
2018-12-15T01:49:04.168Z,100.00
2018-12-15T01:51:31.810Z,100.00
2018-12-15T01:53:59.312Z,100.00
2018-12-15T01:56:27.829Z,100.00
2018-12-15T01:58:55.308Z,100.00
2018-12-15T02:01:22.787Z,100.00
2018-12-15T02:03:50.252Z,100.00
2018-12-15T02:06:18.077Z,100.00
2018-12-15T02:08:45.633Z,100.00
2018-12-15T02:11:13.517Z,100.00
2018-12-15T02:13:41.049Z,100.00
2018-12-15T02:16:08.519Z,100.00
2018-12-15T02:18:35.998Z,100.00
2018-12-15T02:21:03.579Z,100.00
2018-12-15T02:23:31.098Z,100.00
2018-12-15T02:25:58.565Z,100.00
2018-12-15T02:28:26.115Z,100.00
2018-12-15T02:30:53.594Z,100.00
2018-12-15T02:33:21.058Z,100.00
2018-12-15T02:35:48.540Z,100.00
2018-12-15T02:38:16.053Z,100.00
2018-12-15T02:40:43.559Z,100.00
2018-12-15T02:43:11.109Z,100.00
2018-12-15T02:45:39.267Z,100.00
2018-12-15T02:48:06.752Z,100.00
2018-12-15T02:50:34.262Z,100.00
2018-12-15T02:53:01.830Z,100.00
2018-12-15T02:55:29.298Z,100.00
2018-12-15T02:57:57.700Z,100.00
2018-12-15T03:00:25.174Z,100.00
2018-12-15T03:02:52.697Z,100.00
2018-12-15T03:05:20.206Z,100.00
2018-12-15T03:07:47.674Z,100.00
2018-12-15T03:10:15.141Z,100.00
2018-12-15T03:12:42.623Z,100.00
2018-12-15T03:15:10.290Z,100.00
2018-12-15T03:17:37.815Z,100.00
2018-12-15T03:20:05.495Z,100.00
2018-12-15T03:22:32.980Z,100.00
2018-12-15T03:25:00.456Z,100.00
2018-12-15T03:27:28.637Z,100.00
2018-12-15T03:29:56.274Z,100.00
2018-12-15T03:32:23.756Z,100.00
2018-12-15T03:34:51.226Z,100.00
2018-12-15T03:37:18.950Z,100.00
2018-12-15T03:39:46.495Z,100.00
2018-12-15T03:42:14.045Z,100.00
2018-12-15T03:44:41.649Z,100.00
2018-12-15T03:47:09.127Z,100.00
2018-12-15T03:49:36.625Z,100.00
2018-12-15T03:52:04.294Z,100.00
2018-12-15T03:54:31.786Z,100.00
2018-12-15T03:56:59.254Z,100.00
2018-12-15T03:59:27.114Z,100.00
2018-12-15T04:01:54.649Z,99.11
2018-12-15T04:04:22.193Z,98.77
2018-12-15T04:06:49.662Z,97.71
2018-12-15T04:09:17.168Z,98.07
2018-12-15T04:11:44.664Z,97.78
2018-12-15T04:14:12.151Z,97.89
2018-12-15T04:16:39.630Z,97.52
2018-12-15T04:19:07.251Z,98.40
2018-12-15T04:21:35.107Z,97.28
2018-12-15T04:24:02.973Z,97.69
2018-12-15T04:26:30.463Z,97.67
2018-12-15T04:28:58.443Z,96.86
2018-12-15T04:31:25.929Z,96.84
2018-12-15T04:33:53.437Z,96.71
2018-12-15T04:36:21.008Z,96.19
2018-12-15T04:38:48.487Z,96.40
2018-12-15T04:41:16.031Z,97.04
2018-12-15T04:43:43.554Z,96.72
2018-12-15T04:46:12.505Z,97.21
2018-12-15T04:48:40.025Z,97.43
2018-12-15T04:51:07.584Z,97.34
2018-12-15T04:53:35.311Z,96.94
2018-12-15T04:56:02.823Z,96.94
2018-12-15T04:58:30.289Z,97.76
2018-12-15T05:00:57.828Z,97.58
2018-12-15T05:03:25.352Z,97.70
2018-12-15T05:05:52.836Z,97.42
2018-12-15T05:08:20.355Z,97.48
2018-12-15T05:10:47.852Z,97.31
2018-12-15T05:13:15.914Z,97.53
2018-12-15T05:15:43.389Z,97.96
2018-12-15T05:18:18.017Z,97.59
2018-12-15T05:20:41.165Z,97.46
2018-12-15T05:23:08.678Z,97.00
2018-12-15T05:25:36.607Z,96.45
2018-12-15T05:28:04.196Z,97.50
2018-12-15T05:30:31.675Z,96.41
2018-12-15T05:32:59.273Z,96.75
2018-12-15T05:35:26.831Z,96.59
2018-12-15T05:37:54.307Z,96.59
2018-12-15T05:40:22.366Z,96.67
2018-12-15T05:42:49.844Z,96.55
2018-12-15T05:45:19.131Z,96.09
2018-12-15T05:47:46.680Z,95.64
2018-12-15T05:50:14.164Z,96.09
2018-12-15T05:52:41.632Z,95.88
2018-12-15T05:55:09.139Z,95.79
2018-12-15T05:57:36.967Z,95.78
2018-12-15T06:00:08.052Z,95.85
2018-12-15T06:02:35.996Z,94.74
2018-12-15T06:05:04.446Z,95.26
2018-12-15T06:07:32.391Z,94.29
2018-12-15T06:09:59.924Z,95.46
2018-12-15T06:12:27.405Z,94.90
2018-12-15T06:14:54.900Z,94.24
2018-12-15T06:17:22.441Z,93.35
2018-12-15T06:19:49.925Z,93.92
2018-12-15T06:22:17.451Z,92.97
2018-12-15T06:24:44.923Z,92.87
2018-12-15T06:27:12.415Z,93.29
2018-12-15T06:29:39.920Z,93.14
2018-12-15T06:32:07.433Z,93.41
2018-12-15T06:34:34.926Z,93.14
2018-12-15T06:37:02.390Z,93.06
2018-12-15T06:39:29.849Z,92.68
2018-12-15T06:41:57.351Z,93.20
2018-12-15T06:44:24.819Z,92.59
2018-12-15T06:46:52.337Z,93.15
2018-12-15T06:49:19.797Z,93.30
2018-12-15T06:51:48.074Z,92.63
2018-12-15T06:54:15.712Z,92.79
2018-12-15T06:56:44.622Z,92.41
2018-12-15T06:59:12.183Z,92.82
2018-12-15T07:01:42.299Z,92.60
2018-12-15T07:04:10.380Z,93.01
2018-12-15T07:06:39.245Z,92.75
2018-12-15T07:09:07.826Z,92.88
2018-12-15T07:11:36.044Z,92.18
2018-12-15T07:14:03.680Z,92.26
2018-12-15T07:16:31.353Z,91.93
2018-12-15T07:18:59.332Z,92.21
2018-12-15T07:21:26.803Z,92.21
2018-12-15T07:23:59.868Z,91.48
2018-12-15T07:26:27.337Z,91.56
2018-12-15T07:28:54.887Z,91.59
2018-12-15T07:31:22.590Z,91.23
2018-12-15T07:33:50.098Z,91.24
2018-12-15T07:36:17.617Z,91.99
2018-12-15T07:38:45.112Z,92.01
2018-12-15T07:41:12.603Z,90.81
2018-12-15T07:43:40.235Z,91.30
2018-12-15T07:46:07.814Z,91.69
2018-12-15T07:48:35.287Z,90.60
2018-12-15T07:51:02.808Z,90.71
2018-12-15T07:53:30.477Z,90.67
2018-12-15T07:55:57.956Z,89.91
2018-12-15T07:58:25.587Z,90.00
2018-12-15T08:00:53.088Z,90.34
2018-12-15T08:03:21.341Z,90.14
2018-12-15T08:05:48.819Z,89.92
2018-12-15T08:08:21.081Z,89.42
2018-12-15T08:10:54.067Z,89.87
2018-12-15T08:13:24.250Z,88.86
2018-12-15T08:15:51.743Z,88.56
2018-12-15T08:18:19.307Z,88.89
2018-12-15T08:20:46.829Z,88.09
2018-12-15T08:23:19.816Z,88.85
2018-12-15T08:25:47.340Z,88.34
2018-12-15T08:28:15.001Z,88.48
2018-12-15T08:30:42.498Z,87.26
2018-12-15T08:33:10.830Z,87.96
2018-12-15T08:35:38.305Z,86.44
2018-12-15T08:38:05.920Z,86.98
2018-12-15T08:40:33.620Z,87.97
2018-12-15T08:43:01.179Z,86.82
2018-12-15T08:45:28.754Z,87.24
2018-12-15T08:47:56.801Z,87.42
2018-12-15T08:50:24.289Z,86.46
2018-12-15T08:52:52.155Z,86.30
2018-12-15T08:55:19.764Z,87.56
2018-12-15T08:57:47.294Z,87.28
2018-12-15T09:00:14.795Z,87.46
2018-12-15T09:02:42.279Z,88.06
2018-12-15T09:05:09.789Z,87.11
2018-12-15T09:07:37.276Z,87.34
2018-12-15T09:10:07.151Z,86.95
2018-12-15T09:12:34.749Z,87.08
2018-12-15T09:15:02.280Z,87.89
2018-12-15T09:17:29.864Z,88.04
2018-12-15T09:19:57.350Z,88.84
2018-12-15T09:22:32.931Z,88.22
2018-12-15T09:25:00.396Z,87.93
2018-12-15T09:27:27.951Z,89.39
2018-12-15T09:29:55.538Z,89.11
2018-12-15T09:32:23.171Z,88.00
2018-12-15T09:34:52.137Z,88.37
2018-12-15T09:37:19.721Z,88.27
2018-12-15T09:39:47.316Z,88.37
2018-12-15T09:42:14.839Z,89.39
2018-12-15T09:44:42.613Z,88.93
2018-12-15T09:47:10.967Z,89.83
2018-12-15T09:49:38.540Z,88.88
2018-12-15T09:52:06.001Z,88.74
2018-12-15T09:54:36.517Z,89.12
2018-12-15T09:57:04.645Z,89.42
2018-12-15T09:59:32.195Z,89.78
2018-12-15T10:01:59.762Z,89.17
2018-12-15T10:04:27.259Z,89.14
2018-12-15T10:06:54.860Z,89.02
2018-12-15T10:09:22.351Z,88.56
2018-12-15T10:11:49.828Z,88.95
2018-12-15T10:14:17.338Z,88.81
2018-12-15T10:16:45.087Z,88.55
2018-12-15T10:19:12.582Z,88.87
2018-12-15T10:21:40.054Z,90.02
2018-12-15T10:24:07.549Z,89.39
2018-12-15T10:26:35.035Z,89.93
2018-12-15T10:29:03.612Z,89.77
2018-12-15T10:31:36.935Z,90.96
2018-12-15T10:34:04.913Z,90.94
2018-12-15T10:36:32.521Z,90.08
2018-12-15T10:39:00.128Z,90.39
2018-12-15T10:41:27.733Z,89.66
2018-12-15T10:43:55.240Z,90.42
2018-12-15T10:46:22.713Z,90.67
2018-12-15T10:48:50.177Z,90.23
2018-12-15T10:51:17.744Z,90.04
2018-12-15T10:53:45.674Z,90.49
2018-12-15T10:56:13.973Z,90.42
2018-12-15T10:58:41.471Z,89.57
2018-12-15T11:01:23.501Z,89.25
2018-12-15T11:03:51.089Z,89.23
2018-12-15T11:06:18.760Z,89.57
2018-12-15T11:08:46.243Z,89.53
2018-12-15T11:11:13.744Z,90.10
2018-12-15T11:13:41.221Z,89.98
2018-12-15T11:16:08.807Z,90.11
2018-12-15T11:18:36.351Z,89.78
2018-12-15T11:21:03.821Z,90.78
2018-12-15T11:23:31.352Z,89.57
2018-12-15T11:25:58.835Z,89.38
2018-12-15T11:28:26.366Z,89.28
2018-12-15T11:30:53.818Z,89.03
2018-12-15T11:33:21.323Z,89.81
2018-12-15T11:35:48.797Z,89.30
2018-12-15T11:38:16.305Z,87.89
2018-12-15T11:40:43.880Z,87.54
2018-12-15T11:43:11.379Z,87.76
2018-12-15T11:45:38.931Z,88.42
2018-12-15T11:48:06.576Z,89.14
2018-12-15T11:50:34.151Z,89.80
2018-12-15T11:53:01.691Z,89.65
2018-12-15T11:55:29.249Z,89.64
2018-12-15T11:57:56.766Z,90.05
2018-12-15T12:00:24.329Z,91.14
2018-12-15T12:02:51.912Z,90.70
2018-12-15T12:05:19.443Z,92.14
2018-12-15T12:07:47.027Z,90.48
2018-12-15T12:10:14.626Z,91.77
2018-12-15T12:12:42.237Z,91.85
2018-12-15T12:15:09.783Z,91.07
2018-12-15T12:17:37.262Z,89.68
2018-12-15T12:20:06.721Z,90.23
2018-12-15T12:22:34.332Z,88.68
2018-12-15T12:25:01.867Z,88.72
2018-12-15T12:27:29.360Z,88.78
2018-12-15T12:29:56.909Z,89.07
2018-12-15T12:32:24.987Z,89.53
2018-12-15T12:34:53.253Z,89.06
2018-12-15T12:37:20.732Z,88.37
2018-12-15T12:39:48.222Z,88.45
2018-12-15T12:42:15.741Z,88.38
2018-12-15T12:44:43.310Z,87.62
2018-12-15T12:47:10.794Z,87.56
2018-12-15T12:49:38.316Z,89.61
2018-12-15T12:52:05.823Z,87.04
2018-12-15T12:54:33.884Z,87.12
2018-12-15T12:57:01.390Z,86.42
2018-12-15T12:59:29.412Z,86.98
2018-12-15T13:01:57.420Z,86.32
2018-12-15T13:04:24.917Z,86.43
2018-12-15T13:06:54.281Z,86.89
2018-12-15T13:09:21.790Z,88.08
2018-12-15T13:11:49.280Z,86.68
2018-12-15T13:14:16.749Z,86.52
2018-12-15T13:16:44.270Z,86.66
2018-12-15T13:19:11.772Z,86.87
2018-12-15T13:21:39.262Z,86.98
2018-12-15T13:24:06.866Z,86.51
2018-12-15T13:26:34.363Z,87.03
2018-12-15T13:29:02.177Z,87.43
2018-12-15T13:31:29.686Z,88.38
2018-12-15T13:33:57.156Z,86.79
2018-12-15T13:36:24.691Z,86.43
2018-12-15T13:38:52.271Z,86.99
2018-12-15T13:41:20.441Z,85.87
2018-12-15T13:43:47.922Z,85.91
2018-12-15T13:46:15.651Z,84.46
2018-12-15T13:48:43.105Z,83.19
2018-12-15T13:51:10.651Z,84.05
2018-12-15T13:53:38.102Z,81.68
2018-12-15T13:56:06.139Z,82.95
2018-12-15T13:58:33.755Z,83.47
2018-12-15T14:01:02.397Z,84.38
2018-12-15T14:03:29.947Z,84.89
2018-12-15T14:05:57.445Z,84.94
2018-12-15T14:08:25.066Z,83.45
2018-12-15T14:10:52.665Z,84.33
2018-12-15T14:13:20.185Z,83.53
2018-12-15T14:15:47.686Z,83.73
2018-12-15T14:18:15.308Z,82.49
2018-12-15T14:20:43.274Z,83.32
2018-12-15T14:23:10.800Z,82.44
2018-12-15T14:25:39.055Z,82.72
2018-12-15T14:28:06.824Z,84.63
2018-12-15T14:30:34.560Z,85.40
2018-12-15T14:33:03.266Z,85.38
2018-12-15T14:35:31.074Z,85.29
2018-12-15T14:37:58.649Z,86.36
2018-12-15T14:40:26.623Z,87.15
2018-12-15T14:42:54.988Z,87.00
2018-12-15T14:45:22.910Z,88.07
2018-12-15T14:47:52.063Z,88.89
2018-12-15T14:50:23.552Z,89.33
2018-12-15T14:52:50.777Z,90.47
2018-12-15T14:55:19.591Z,91.65
2018-12-15T14:57:47.418Z,91.71
2018-12-15T15:00:15.225Z,92.75
2018-12-15T15:02:43.661Z,92.59
2018-12-15T15:05:12.488Z,92.98
2018-12-15T15:07:44.131Z,92.04
2018-12-15T15:10:12.031Z,92.27
2018-12-15T15:12:39.828Z,93.15
2018-12-15T15:15:07.420Z,92.63
2018-12-15T15:17:35.268Z,92.52
2018-12-15T15:20:05.911Z,92.58
2018-12-15T15:22:34.079Z,91.91
2018-12-15T15:25:01.843Z,93.35
2018-12-15T15:27:46.998Z,92.46
2018-12-15T15:30:14.663Z,93.51
2018-12-15T15:32:42.339Z,92.99
2018-12-15T15:35:11.531Z,92.34
2018-12-15T15:37:39.020Z,92.84
2018-12-15T15:40:07.815Z,92.24
2018-12-15T15:42:36.825Z,93.20
2018-12-15T15:45:05.461Z,93.03
2018-12-15T15:47:33.107Z,92.69
2018-12-15T15:50:02.263Z,92.92
2018-12-15T15:52:29.972Z,93.25
2018-12-15T15:54:57.720Z,91.82
2018-12-15T15:57:25.437Z,92.30
2018-12-15T15:59:53.911Z,91.49
2018-12-15T16:02:21.650Z,92.35
2018-12-15T16:04:49.448Z,91.12
2018-12-15T16:07:17.190Z,90.30
2018-12-15T16:09:45.205Z,90.98
2018-12-15T16:12:13.226Z,90.41
2018-12-15T16:14:41.108Z,90.96
2018-12-15T16:17:08.973Z,90.72
2018-12-15T16:19:36.616Z,91.38
2018-12-15T16:22:05.031Z,91.07
2018-12-15T16:24:33.221Z,91.04
2018-12-15T16:27:01.057Z,90.51
2018-12-15T16:29:28.899Z,90.78
2018-12-15T16:31:56.701Z,90.66
2018-12-15T16:34:25.171Z,91.87
2018-12-15T16:36:53.488Z,92.21
2018-12-15T16:39:21.223Z,92.35
2018-12-15T16:41:49.431Z,92.58
2018-12-15T16:44:17.383Z,93.20
2018-12-15T16:46:45.146Z,92.91
2018-12-15T16:49:12.677Z,93.83
2018-12-15T16:51:40.278Z,94.06
2018-12-15T16:54:08.076Z,94.21
2018-12-15T16:56:36.217Z,94.47
2018-12-15T16:59:05.053Z,94.83
2018-12-15T17:01:34.750Z,94.40
2018-12-15T17:04:02.608Z,95.26
2018-12-15T17:06:31.027Z,95.13
2018-12-15T17:09:00.826Z,95.18
2018-12-15T17:11:28.947Z,95.99
2018-12-15T17:13:57.465Z,96.01
2018-12-15T17:16:25.106Z,96.02
2018-12-15T17:18:52.808Z,96.83
2018-12-15T17:21:20.562Z,96.21
2018-12-15T17:23:49.105Z,96.45
2018-12-15T17:26:16.725Z,96.45
2018-12-15T17:28:44.398Z,97.17
2018-12-15T17:31:12.185Z,96.97
2018-12-15T17:33:39.665Z,97.23
2018-12-15T17:36:07.193Z,97.18
2018-12-15T17:38:34.705Z,96.44
2018-12-15T17:41:02.209Z,97.64
2018-12-15T17:43:29.696Z,97.29
2018-12-15T17:45:58.345Z,97.25
2018-12-15T17:48:26.197Z,98.42
2018-12-15T17:50:54.702Z,97.38
2018-12-15T17:53:22.552Z,96.87
2018-12-15T17:55:50.129Z,97.26
2018-12-15T17:58:19.582Z,97.77
2018-12-15T18:00:48.233Z,97.80
2018-12-15T18:03:16.867Z,98.03
2018-12-15T18:05:44.734Z,97.78
2018-12-15T18:08:12.900Z,97.55
2018-12-15T18:10:41.696Z,97.92
2018-12-15T18:13:09.410Z,98.33
2018-12-15T18:15:37.044Z,98.77
2018-12-15T18:18:04.556Z,98.78
2018-12-15T18:20:32.363Z,99.15
2018-12-15T18:23:00.953Z,98.61
2018-12-15T18:25:28.430Z,99.20
2018-12-15T18:27:56.741Z,99.11
2018-12-15T18:30:24.466Z,99.53
2018-12-15T18:32:52.215Z,98.49
2018-12-15T18:35:19.917Z,98.28
2018-12-15T18:37:48.612Z,98.74
2018-12-15T18:40:16.336Z,97.72
2018-12-15T18:42:44.410Z,97.61
2018-12-15T18:45:12.259Z,96.61
2018-12-15T18:47:40.047Z,96.57
2018-12-15T18:50:08.867Z,95.43
2018-12-15T18:52:37.147Z,95.40
2018-12-15T18:55:06.042Z,94.70
2018-12-15T18:57:34.523Z,94.16
2018-12-15T19:00:02.292Z,93.60
2018-12-15T19:02:29.956Z,94.18
2018-12-15T19:04:57.450Z,94.37
2018-12-15T19:07:25.126Z,93.20
2018-12-15T19:09:52.935Z,92.57
2018-12-15T19:12:20.756Z,92.85
2018-12-15T19:14:48.623Z,92.86
2018-12-15T19:17:16.290Z,91.53
2018-12-15T19:19:43.991Z,91.97
2018-12-15T19:22:11.724Z,92.55
2018-12-15T19:24:40.490Z,93.39
2018-12-15T19:27:09.191Z,94.28
2018-12-15T19:29:38.087Z,95.27
2018-12-15T19:32:05.846Z,95.03
2018-12-15T19:34:33.584Z,95.60
2018-12-15T19:37:02.915Z,94.98
2018-12-15T19:39:30.664Z,94.23
2018-12-15T19:41:58.809Z,93.48
2018-12-15T19:44:28.076Z,94.60
2018-12-15T19:46:56.239Z,94.56
2018-12-15T19:49:25.007Z,93.79
2018-12-15T19:51:52.714Z,93.47
2018-12-15T19:54:20.424Z,92.42
2018-12-15T19:56:48.289Z,92.17
2018-12-15T19:59:17.097Z,91.87
2018-12-15T20:01:45.486Z,92.32
2018-12-15T20:04:13.242Z,93.00
2018-12-15T20:06:40.977Z,93.49
2018-12-15T20:09:08.635Z,92.51
2018-12-15T20:11:37.765Z,93.30
2018-12-15T20:14:05.631Z,94.05
2018-12-15T20:16:33.980Z,95.24
2018-12-15T20:19:02.018Z,94.78
2018-12-15T20:21:35.991Z,94.38
2018-12-15T20:24:02.832Z,93.71
2018-12-15T20:26:30.424Z,93.84
2018-12-15T20:28:58.672Z,94.51
2018-12-15T20:31:26.360Z,93.02
2018-12-15T20:33:54.247Z,90.86
2018-12-15T20:36:21.747Z,89.71
2018-12-15T20:38:49.335Z,88.47
2018-12-15T20:41:17.082Z,88.22
2018-12-15T20:43:45.569Z,87.10
2018-12-15T20:46:14.753Z,85.03
2018-12-15T20:48:42.452Z,86.27
2018-12-15T20:51:11.568Z,90.28
2018-12-15T20:53:39.805Z,93.75
2018-12-15T20:56:07.443Z,96.69
2018-12-15T20:58:37.263Z,98.34
2018-12-15T21:01:05.675Z,100.00
2018-12-15T21:03:33.228Z,100.00
2018-12-15T21:06:01.509Z,100.00
2018-12-15T21:08:28.989Z,100.00
2018-12-15T21:10:56.505Z,100.00
2018-12-15T21:13:23.995Z,100.00
2018-12-15T21:15:53.758Z,100.00
2018-12-15T21:18:22.171Z,100.00
2018-12-15T21:20:49.935Z,100.00
2018-12-15T21:23:18.398Z,100.00
2018-12-15T21:25:45.863Z,100.00
2018-12-15T21:28:14.182Z,100.00
2018-12-15T21:30:41.775Z,100.00
2018-12-15T21:33:09.480Z,100.00
2018-12-15T21:35:37.106Z,100.00
2018-12-15T21:38:04.720Z,100.00
2018-12-15T21:40:32.325Z,100.00
2018-12-15T21:42:59.939Z,100.00
2018-12-15T21:45:28.688Z,100.00
2018-12-15T21:47:57.839Z,100.00
2018-12-15T21:50:25.885Z,100.00
2018-12-15T21:52:55.208Z,100.00
2018-12-15T21:55:25.281Z,100.00
2018-12-15T21:57:58.255Z,100.00
2018-12-15T22:00:26.429Z,100.00
2018-12-15T22:02:54.660Z,100.00
2018-12-15T22:05:22.127Z,100.00
2018-12-15T22:07:50.056Z,100.00
2018-12-15T22:10:17.563Z,100.00
2018-12-15T22:12:45.050Z,100.00
2018-12-15T22:15:12.598Z,100.00
2018-12-15T22:17:40.201Z,100.00
2018-12-15T22:20:09.891Z,100.00
2018-12-15T22:22:37.438Z,100.00
2018-12-15T22:25:05.429Z,100.00
2018-12-15T22:27:32.938Z,100.00
2018-12-15T22:30:01.071Z,100.00
2018-12-15T22:32:28.547Z,100.00
2018-12-15T22:34:56.077Z,100.00
2018-12-15T22:37:23.554Z,100.00
2018-12-15T22:39:51.034Z,100.00
2018-12-15T22:42:18.556Z,100.00
2018-12-15T22:44:46.038Z,100.00
2018-12-15T22:47:13.751Z,100.00
2018-12-15T22:49:41.692Z,100.00
2018-12-15T22:52:09.941Z,100.00
2018-12-15T22:54:37.793Z,100.00
2018-12-15T22:57:05.280Z,100.00
2018-12-15T22:59:32.986Z,100.00
2018-12-15T23:02:00.525Z,100.00
2018-12-15T23:04:28.108Z,100.00
2018-12-15T23:06:55.600Z,100.00
2018-12-15T23:09:23.079Z,100.00
2018-12-15T23:11:50.557Z,99.78
2018-12-15T23:14:18.497Z,100.00
2018-12-15T23:16:46.064Z,100.00
2018-12-15T23:19:13.676Z,100.00
2018-12-15T23:21:41.309Z,100.00
2018-12-15T23:24:08.806Z,100.00
2018-12-15T23:26:36.348Z,100.00
2018-12-15T23:29:04.352Z,100.00
2018-12-15T23:31:31.859Z,100.00
2018-12-15T23:33:59.409Z,100.00
2018-12-15T23:36:26.943Z,100.00
2018-12-15T23:38:54.423Z,100.00
2018-12-15T23:41:21.896Z,100.00
2018-12-15T23:43:49.804Z,100.00
2018-12-15T23:46:17.315Z,100.00
2018-12-15T23:48:44.840Z,100.00
2018-12-15T23:51:12.320Z,100.00
2018-12-15T23:53:39.866Z,100.00
2018-12-15T23:56:07.507Z,100.00
2018-12-15T23:58:35.516Z,99.98
